createdAt,value
2022-09-24T00:04:52.611Z,12.60
2022-09-24T00:09:55.394Z,12.70
2022-09-24T00:14:58.234Z,12.40
2022-09-24T00:20:01.370Z,13.20
2022-09-24T00:25:23.405Z,12.40
2022-09-24T00:30:26.329Z,12.80
2022-09-24T00:35:32.203Z,12.80
2022-09-24T00:40:37.303Z,11.80
2022-09-24T00:45:42.614Z,13.40
2022-09-24T00:50:46.044Z,12.70
2022-09-24T00:55:54.718Z,12.70
2022-09-24T01:01:04.459Z,12.80
2022-09-24T01:06:09.447Z,13.20
2022-09-24T01:11:40.781Z,12.80
2022-09-24T01:17:00.202Z,12.50
2022-09-24T01:22:30.601Z,12.00
2022-09-24T01:28:00.354Z,12.20
2022-09-24T01:33:08.298Z,12.00
2022-09-24T01:38:21.554Z,11.50
2022-09-24T01:43:27.206Z,11.60
2022-09-24T01:48:30.564Z,11.60
2022-09-24T01:53:44.958Z,11.80
2022-09-24T02:03:57.804Z,11.80
2022-09-24T02:09:00.829Z,12.30
2022-09-24T02:14:09.671Z,12.40
2022-09-24T02:19:17.472Z,12.00
2022-09-24T02:24:29.677Z,11.30
2022-09-24T02:29:32.503Z,12.10
2022-09-24T02:34:47.248Z,11.40
2022-09-24T02:39:50.916Z,11.30
2022-09-24T02:44:57.474Z,11.90
2022-09-24T02:50:00.672Z,12.30
2022-09-24T02:55:05.125Z,11.90
2022-09-24T03:00:08.967Z,12.60
2022-09-24T03:05:12.657Z,11.80
2022-09-24T03:10:15.509Z,12.00
2022-09-24T03:15:18.308Z,12.00
2022-09-24T03:20:21.749Z,11.40
2022-09-24T03:25:25.872Z,11.40
2022-09-24T03:30:47.025Z,11.60
2022-09-24T03:35:49.843Z,11.10
2022-09-24T03:40:53.256Z,11.30
2022-09-24T03:45:56.191Z,11.60
2022-09-24T03:51:14.138Z,10.70
2022-09-24T03:56:17.090Z,11.50
2022-09-24T04:01:22.020Z,11.00
2022-09-24T04:06:27.135Z,11.30
2022-09-24T04:11:29.941Z,11.60
2022-09-24T04:16:33.029Z,11.90
2022-09-24T04:21:36.217Z,11.00
2022-09-24T04:26:39.121Z,10.80
2022-09-24T04:31:42.033Z,11.50
2022-09-24T04:36:44.878Z,11.20
2022-09-24T04:41:48.040Z,10.80
2022-09-24T04:46:50.927Z,11.90
2022-09-24T04:51:53.709Z,11.30
2022-09-24T04:56:56.569Z,11.60
2022-09-24T05:01:59.520Z,11.30
2022-09-24T05:07:02.398Z,12.00
2022-09-24T05:12:05.937Z,11.00
2022-09-24T05:17:08.696Z,10.90
2022-09-24T05:22:11.725Z,10.60
2022-09-24T05:27:14.502Z,11.00
2022-09-24T05:32:19.965Z,11.00
2022-09-24T05:37:22.796Z,11.10
2022-09-24T05:42:25.757Z,11.00
2022-09-24T05:47:28.641Z,11.20
2022-09-24T05:52:31.529Z,11.90
2022-09-24T05:57:34.552Z,11.30
2022-09-24T06:02:37.480Z,11.60
2022-09-24T06:07:40.352Z,10.90
2022-09-24T06:12:44.051Z,11.30
2022-09-24T06:17:47.234Z,11.80
2022-09-24T06:22:50.698Z,12.50
2022-09-24T06:28:00.461Z,11.50
2022-09-24T06:33:14.039Z,12.40
2022-09-24T06:38:18.527Z,12.40
2022-09-24T06:43:21.438Z,12.30
2022-09-24T06:48:25.022Z,12.00
2022-09-24T06:53:27.993Z,12.20
2022-09-24T06:58:31.084Z,11.30
2022-09-24T07:03:34.640Z,12.80
2022-09-24T07:08:38.295Z,10.70
2022-09-24T07:13:41.170Z,10.70
2022-09-24T07:18:44.044Z,12.10
2022-09-24T07:23:47.490Z,11.90
2022-09-24T07:28:50.342Z,11.50
2022-09-24T07:33:53.603Z,12.00
2022-09-24T07:38:56.523Z,12.20
2022-09-24T07:43:59.346Z,12.90
2022-09-24T07:49:02.393Z,11.20
2022-09-24T07:54:06.450Z,12.00
2022-09-24T07:59:11.332Z,11.80
2022-09-24T08:04:14.337Z,12.20
2022-09-24T08:09:17.375Z,12.70
2022-09-24T08:14:20.498Z,12.80
2022-09-24T08:19:23.377Z,12.70
2022-09-24T08:24:26.355Z,11.60
2022-09-24T08:29:29.142Z,10.20
2022-09-24T08:34:38.416Z,10.70
2022-09-24T08:39:41.271Z,10.30
2022-09-24T08:45:04.618Z,9.60
2022-09-24T08:50:17.550Z,7.60
2022-09-24T08:55:25.920Z,8.20
2022-09-24T09:00:36.426Z,7.10
2022-09-24T09:05:49.636Z,8.20
2022-09-24T09:10:58.695Z,8.20
2022-09-24T09:16:07.116Z,7.50
2022-09-24T09:21:24.595Z,6.30
2022-09-24T09:26:28.019Z,6.00
2022-09-24T09:31:40.044Z,6.50
2022-09-24T09:37:14.048Z,6.60
2022-09-24T09:42:36.495Z,6.00
2022-09-24T09:47:51.016Z,5.80
2022-09-24T09:52:54.892Z,5.70
2022-09-24T09:58:16.092Z,5.20
2022-09-24T10:03:26.376Z,4.10
2022-09-24T10:08:30.205Z,5.10
2022-09-24T10:13:33.675Z,4.10
2022-09-24T10:18:43.542Z,4.60
2022-09-24T10:23:50.311Z,5.20
2022-09-24T10:29:12.020Z,4.30
2022-09-24T10:34:29.055Z,5.20
2022-09-24T10:39:31.972Z,4.40
2022-09-24T10:44:37.228Z,4.30
2022-09-24T10:50:01.418Z,4.80
2022-09-24T10:55:15.210Z,4.90
2022-09-24T11:00:28.611Z,4.60
2022-09-24T11:05:57.265Z,4.40
2022-09-24T11:11:09.729Z,6.10
2022-09-24T11:16:39.141Z,5.10
2022-09-24T11:22:38.927Z,5.60
2022-09-24T11:28:01.307Z,4.20
2022-09-24T11:33:26.349Z,3.60
2022-09-24T11:39:04.801Z,3.40
2022-09-24T11:44:28.722Z,3.70
2022-09-24T11:50:11.246Z,3.60
2022-09-24T11:55:22.181Z,3.30
2022-09-24T12:00:32.515Z,2.40
2022-09-24T12:05:39.624Z,3.40
2022-09-24T12:10:51.520Z,2.50
2022-09-24T12:16:03.667Z,2.30
2022-09-24T12:21:13.233Z,3.20
2022-09-24T12:26:17.854Z,2.70
2022-09-24T12:31:47.104Z,2.30
2022-09-24T12:37:11.761Z,2.40
2022-09-24T12:42:17.296Z,2.10
2022-09-24T12:47:25.912Z,1.90
2022-09-24T12:52:36.600Z,2.00
2022-09-24T12:57:42.705Z,2.20
2022-09-24T13:02:47.864Z,2.50
2022-09-24T13:08:24.834Z,2.10
2022-09-24T13:13:30.890Z,1.80
2022-09-24T13:18:36.115Z,2.10
2022-09-24T13:23:49.754Z,1.90
2022-09-24T13:29:01.622Z,1.80
2022-09-24T13:34:10.453Z,1.60
2022-09-24T13:39:34.703Z,1.50
2022-09-24T13:44:43.887Z,1.90
2022-09-24T13:49:50.378Z,1.70
2022-09-24T13:54:57.214Z,1.40
2022-09-24T14:00:16.415Z,1.80
2022-09-24T14:05:20.067Z,1.90
2022-09-24T14:10:25.295Z,2.20
2022-09-24T14:15:28.309Z,1.40
2022-09-24T14:20:35.441Z,2.90
2022-09-24T14:25:39.923Z,1.80
2022-09-24T14:30:55.328Z,1.80
2022-09-24T14:41:25.163Z,1.50
2022-09-24T14:46:48.836Z,1.60
2022-09-24T14:51:55.303Z,2.00
2022-09-24T14:57:10.974Z,2.50
2022-09-24T15:07:30.121Z,3.00
2022-09-24T15:12:36.624Z,2.50
2022-09-24T15:17:39.618Z,2.30
2022-09-24T15:22:42.606Z,2.80
2022-09-24T15:27:45.862Z,3.30
2022-09-24T15:32:50.175Z,3.10
2022-09-24T15:37:53.142Z,2.90
2022-09-24T15:42:56.185Z,2.40
2022-09-24T15:47:59.155Z,2.20
2022-09-24T15:53:02.593Z,2.10
2022-09-24T15:58:15.812Z,2.10
2022-09-24T16:03:30.254Z,1.90
2022-09-24T16:08:33.171Z,2.00
2022-09-24T16:13:36.266Z,2.80
2022-09-24T16:18:40.833Z,2.40
2022-09-24T16:23:43.839Z,2.40
2022-09-24T16:28:47.614Z,2.60
2022-09-24T16:33:50.542Z,2.30
2022-09-24T16:38:53.387Z,2.40
2022-09-24T16:43:57.010Z,3.10
2022-09-24T16:48:59.945Z,3.30
2022-09-24T16:54:03.081Z,3.00
2022-09-24T16:59:06.230Z,3.70
2022-09-24T17:04:09.806Z,3.80
2022-09-24T17:09:31.610Z,4.90
2022-09-24T17:14:37.624Z,4.50
2022-09-24T17:19:40.588Z,4.10
2022-09-24T17:24:43.793Z,4.40
2022-09-24T17:29:47.920Z,4.50
2022-09-24T17:34:50.896Z,5.10
2022-09-24T17:39:53.709Z,6.00
2022-09-24T17:44:56.585Z,7.90
2022-09-24T17:50:00.151Z,7.00
2022-09-24T17:55:08.485Z,6.70
2022-09-24T18:00:11.742Z,6.40
2022-09-24T18:05:14.846Z,8.00
2022-09-24T18:10:20.365Z,7.20
2022-09-24T18:15:23.168Z,7.60
2022-09-24T18:20:26.386Z,7.80
2022-09-24T18:25:29.418Z,8.30
2022-09-24T18:30:32.793Z,8.30
2022-09-24T18:35:35.665Z,8.70
2022-09-24T18:40:38.712Z,9.30
2022-09-24T18:45:41.809Z,9.20
2022-09-24T18:50:45.203Z,10.30
2022-09-24T18:55:48.091Z,10.20
2022-09-24T19:00:51.421Z,9.80
2022-09-24T19:05:56.453Z,9.90
2022-09-24T19:11:14.473Z,9.50
2022-09-24T19:16:19.619Z,10.30
2022-09-24T19:21:26.037Z,9.80
2022-09-24T19:26:32.290Z,9.60
2022-09-24T19:31:38.222Z,10.30
2022-09-24T19:36:44.928Z,11.20
2022-09-24T19:41:53.086Z,10.10
2022-09-24T19:46:56.166Z,10.00
2022-09-24T19:51:58.970Z,11.20
2022-09-24T19:57:01.870Z,10.50
2022-09-24T20:02:04.888Z,11.10
2022-09-24T20:07:08.277Z,11.30
2022-09-24T20:12:17.070Z,10.70
2022-09-24T20:17:19.902Z,10.60
2022-09-24T20:22:23.247Z,11.50
2022-09-24T20:27:44.873Z,10.30
2022-09-24T20:32:48.422Z,10.30
2022-09-24T20:37:51.458Z,10.80
2022-09-24T20:42:54.280Z,9.80
2022-09-24T20:47:57.388Z,12.20
2022-09-24T20:53:00.260Z,11.50
2022-09-24T20:58:03.305Z,13.10
2022-09-24T21:03:25.669Z,12.90
2022-09-24T21:08:37.662Z,12.70
2022-09-24T21:13:43.903Z,12.90
2022-09-24T21:18:47.802Z,12.30
2022-09-24T21:23:53.568Z,12.50
2022-09-24T21:29:01.121Z,12.50
2022-09-24T21:34:06.931Z,11.80
2022-09-24T21:39:23.194Z,13.10
2022-09-24T21:44:26.275Z,13.20
2022-09-24T21:49:29.826Z,14.10
2022-09-24T21:54:35.959Z,15.50
2022-09-24T21:59:57.373Z,14.80
2022-09-24T22:05:01.682Z,14.90
2022-09-24T22:10:05.529Z,15.10
2022-09-24T22:15:08.547Z,14.50
2022-09-24T22:20:11.409Z,14.30
2022-09-24T22:25:14.365Z,14.90
2022-09-24T22:30:17.427Z,14.90
2022-09-24T22:35:43.250Z,15.50
2022-09-24T22:40:46.566Z,15.00
2022-09-24T22:45:49.456Z,15.00
2022-09-24T22:50:52.971Z,14.90
2022-09-24T22:56:06.186Z,14.90
2022-09-24T23:01:21.699Z,14.80
2022-09-24T23:06:24.871Z,14.60
2022-09-24T23:11:33.389Z,15.30
2022-09-24T23:16:37.695Z,15.90
2022-09-24T23:21:41.670Z,15.70
2022-09-24T23:26:45.098Z,15.10
2022-09-24T23:31:48.313Z,15.70
2022-09-24T23:36:51.104Z,16.30
2022-09-24T23:41:54.061Z,16.00
2022-09-24T23:46:57.665Z,15.40
2022-09-24T23:52:00.677Z,16.10
2022-09-24T23:57:06.959Z,16.20
